createdAt,value
2023-01-13T00:00:05.115Z,24.67
2023-01-13T00:02:38.946Z,24.20
2023-01-13T00:05:06.155Z,24.95
2023-01-13T00:07:33.285Z,27.99
2023-01-13T00:10:00.114Z,25.27
2023-01-13T00:12:26.955Z,26.77
2023-01-13T00:14:53.999Z,27.15
2023-01-13T00:17:20.715Z,25.26
2023-01-13T00:19:48.382Z,22.63
2023-01-13T00:22:15.078Z,25.63
2023-01-13T00:24:42.035Z,25.47
2023-01-13T00:27:08.761Z,24.49
2023-01-13T00:29:36.359Z,23.46
2023-01-13T00:32:03.743Z,23.16
2023-01-13T00:34:31.491Z,24.65
2023-01-13T00:36:58.514Z,25.44
2023-01-13T00:39:25.190Z,24.69
2023-01-13T00:42:10.127Z,24.37
2023-01-13T00:44:36.793Z,25.00
2023-01-13T00:47:04.242Z,28.40
2023-01-13T00:49:31.558Z,25.74
2023-01-13T00:51:58.478Z,24.78
2023-01-13T00:54:25.167Z,25.73
2023-01-13T00:56:51.883Z,25.44
2023-01-13T00:59:19.126Z,25.88
2023-01-13T01:01:46.561Z,24.50
2023-01-13T01:04:13.613Z,28.61
2023-01-13T01:06:40.489Z,26.71
2023-01-13T01:09:07.256Z,27.66
2023-01-13T01:11:34.866Z,27.39
2023-01-13T01:14:03.485Z,29.41
2023-01-13T01:16:31.833Z,27.10
2023-01-13T01:18:59.464Z,28.10
2023-01-13T01:21:27.711Z,27.10
2023-01-13T01:23:55.285Z,26.94
2023-01-13T01:26:26.726Z,27.51
2023-01-13T01:28:54.828Z,29.81
2023-01-13T01:31:25.299Z,29.74
2023-01-13T01:33:53.840Z,25.81
2023-01-13T01:36:22.059Z,27.05
2023-01-13T01:38:50.161Z,26.57
2023-01-13T01:41:29.059Z,28.79
2023-01-13T01:44:28.922Z,26.71
2023-01-13T01:46:56.861Z,26.93
2023-01-13T01:49:34.083Z,25.77
2023-01-13T01:52:12.902Z,25.78
2023-01-13T01:55:13.081Z,25.35
2023-01-13T01:57:43.317Z,26.35
2023-01-13T02:00:11.174Z,27.13
2023-01-13T02:02:44.157Z,25.51
2023-01-13T02:05:11.100Z,25.53
2023-01-13T02:07:41.683Z,24.66
2023-01-13T02:10:12.548Z,25.30
2023-01-13T02:12:43.135Z,26.47
2023-01-13T02:15:13.030Z,26.04
2023-01-13T02:18:20.476Z,26.31
2023-01-13T02:20:47.170Z,27.81
2023-01-13T02:23:54.435Z,26.20
2023-01-13T02:26:46.005Z,26.92
2023-01-13T02:29:34.552Z,26.42
2023-01-13T02:32:11.998Z,26.19
2023-01-13T02:34:45.864Z,25.68
2023-01-13T02:37:23.996Z,24.78
2023-01-13T02:40:15.852Z,24.96
2023-01-13T02:43:09.482Z,24.09
2023-01-13T02:45:39.843Z,25.53
2023-01-13T02:48:09.153Z,25.27
2023-01-13T02:51:02.064Z,26.20
2023-01-13T02:53:38.792Z,25.44
2023-01-13T02:56:08.179Z,24.24
2023-01-13T02:58:38.054Z,25.10
2023-01-13T03:01:05.664Z,25.11
2023-01-13T03:03:32.594Z,24.72
2023-01-13T03:06:18.051Z,23.70
2023-01-13T03:08:57.731Z,23.35
2023-01-13T03:11:31.582Z,23.79
2023-01-13T03:14:19.234Z,24.96
2023-01-13T03:17:16.313Z,24.46
2023-01-13T03:19:58.715Z,23.80
2023-01-13T03:22:35.951Z,24.60
2023-01-13T03:25:05.387Z,24.77
2023-01-13T03:27:40.905Z,27.33
2023-01-13T03:30:14.858Z,25.34
2023-01-13T03:32:54.094Z,24.06
2023-01-13T03:35:25.933Z,24.21
2023-01-13T03:38:06.230Z,25.23
2023-01-13T03:44:55.060Z,24.06
2023-01-13T03:47:24.989Z,23.67
2023-01-13T03:50:00.647Z,24.10
2023-01-13T03:52:38.979Z,23.35
2023-01-13T03:55:14.103Z,24.22
2023-01-13T03:57:49.869Z,25.06
2023-01-13T04:00:19.684Z,24.74
2023-01-13T04:03:03.872Z,24.84
2023-01-13T04:05:34.601Z,22.80
2023-01-13T04:08:21.185Z,23.70
2023-01-13T04:10:58.195Z,22.95
2023-01-13T04:13:29.387Z,22.01
2023-01-13T04:15:56.641Z,23.80
2023-01-13T04:18:28.701Z,23.07
2023-01-13T04:20:59.109Z,21.95
2023-01-13T04:23:27.938Z,23.34
2023-01-13T04:25:55.645Z,22.42
2023-01-13T04:28:23.180Z,24.48
2023-01-13T04:30:50.223Z,24.05
2023-01-13T04:33:18.536Z,24.26
2023-01-13T04:35:46.568Z,24.21
2023-01-13T04:38:16.278Z,24.43
2023-01-13T04:40:43.483Z,22.80
2023-01-13T04:43:10.601Z,23.62
2023-01-13T04:45:37.317Z,23.15
2023-01-13T04:48:04.844Z,25.17
2023-01-13T04:50:32.022Z,25.54
2023-01-13T04:53:00.497Z,23.71
2023-01-13T04:55:27.853Z,23.93
2023-01-13T04:57:54.621Z,24.38
2023-01-13T05:00:22.976Z,24.56
2023-01-13T05:02:51.351Z,23.87
2023-01-13T05:05:19.131Z,23.04
2023-01-13T05:07:46.104Z,23.50
2023-01-13T05:10:13.206Z,24.96
2023-01-13T05:12:58.355Z,22.75
2023-01-13T05:15:43.824Z,25.25
2023-01-13T05:18:11.065Z,23.71
2023-01-13T05:20:38.099Z,23.01
2023-01-13T05:23:23.192Z,22.59
2023-01-13T05:25:50.328Z,22.95
2023-01-13T05:28:17.034Z,23.51
2023-01-13T05:30:46.225Z,23.84
2023-01-13T05:33:15.363Z,25.27
2023-01-13T05:35:44.310Z,23.31
2023-01-13T05:38:12.198Z,24.33
2023-01-13T05:40:59.630Z,25.28
2023-01-13T05:43:28.739Z,22.68
2023-01-13T05:46:02.763Z,23.63
2023-01-13T05:48:32.880Z,24.76
2023-01-13T05:51:01.089Z,22.94
2023-01-13T05:53:28.175Z,23.74
2023-01-13T05:55:54.996Z,23.24
2023-01-13T05:58:24.440Z,24.43
2023-01-13T06:00:52.092Z,23.42
2023-01-13T06:03:20.650Z,24.36
2023-01-13T06:05:48.540Z,24.06
2023-01-13T06:08:15.376Z,24.24
2023-01-13T06:10:42.468Z,24.50
2023-01-13T06:13:09.203Z,24.33
2023-01-13T06:15:35.925Z,22.92
2023-01-13T06:18:04.453Z,22.66
2023-01-13T06:20:32.360Z,22.83
2023-01-13T06:22:59.821Z,22.77
2023-01-13T06:25:31.435Z,22.71
2023-01-13T06:27:59.951Z,23.58
2023-01-13T06:30:33.996Z,24.52
2023-01-13T06:33:04.484Z,20.90
2023-01-13T06:35:35.338Z,22.75
2023-01-13T06:38:07.763Z,22.67
2023-01-13T06:40:36.159Z,21.77
2023-01-13T06:43:16.612Z,22.57
2023-01-13T06:45:47.924Z,23.34
2023-01-13T06:48:15.788Z,21.52
2023-01-13T06:50:42.488Z,23.25
2023-01-13T06:53:09.811Z,22.17
2023-01-13T06:55:37.448Z,23.03
2023-01-13T06:58:05.087Z,22.19
2023-01-13T07:00:38.294Z,21.96
2023-01-13T07:03:13.466Z,22.61
2023-01-13T07:05:42.102Z,22.59
2023-01-13T07:08:10.117Z,24.93
2023-01-13T07:10:38.166Z,22.61
2023-01-13T07:13:25.296Z,21.39
2023-01-13T07:15:59.977Z,22.31
2023-01-13T07:18:31.521Z,22.37
2023-01-13T07:21:04.594Z,23.14
2023-01-13T07:23:34.265Z,22.71
2023-01-13T07:26:01.339Z,23.24
2023-01-13T07:28:29.404Z,23.21
2023-01-13T07:30:57.154Z,23.15
2023-01-13T07:33:24.653Z,23.90
2023-01-13T07:35:59.527Z,22.44
2023-01-13T07:38:27.609Z,22.03
2023-01-13T07:40:54.884Z,22.88
2023-01-13T07:43:34.048Z,22.79
2023-01-13T07:46:04.745Z,23.26
2023-01-13T07:48:33.547Z,22.93
2023-01-13T07:51:11.835Z,23.83
2023-01-13T07:53:38.758Z,23.63
2023-01-13T07:56:07.172Z,24.03
2023-01-13T07:58:35.888Z,25.30
2023-01-13T08:01:10.632Z,23.87
2023-01-13T08:03:38.290Z,23.05
2023-01-13T08:06:06.257Z,23.67
2023-01-13T08:08:34.030Z,22.51
2023-01-13T08:11:04.885Z,23.17
2023-01-13T08:13:31.971Z,22.92
2023-01-13T08:16:01.951Z,24.17
2023-01-13T08:18:29.636Z,22.36
2023-01-13T08:20:56.387Z,23.28
2023-01-13T08:23:24.082Z,22.78
2023-01-13T08:25:50.835Z,24.55
2023-01-13T08:28:18.204Z,21.79
2023-01-13T08:30:45.345Z,20.73
2023-01-13T08:33:13.220Z,24.18
2023-01-13T08:35:42.188Z,22.36
2023-01-13T08:38:09.567Z,22.92
2023-01-13T08:40:39.035Z,21.93
2023-01-13T08:43:06.196Z,22.08
2023-01-13T08:45:33.321Z,23.92
2023-01-13T08:48:00.014Z,22.99
2023-01-13T08:50:26.752Z,24.03
2023-01-13T08:52:54.577Z,22.17
2023-01-13T08:55:21.342Z,20.53
2023-01-13T08:57:48.523Z,21.27
2023-01-13T09:00:17.346Z,24.63
2023-01-13T09:02:44.686Z,23.33
2023-01-13T09:05:11.748Z,23.08
2023-01-13T09:07:39.794Z,22.87
2023-01-13T09:10:08.967Z,22.42
2023-01-13T09:12:54.806Z,21.85
2023-01-13T09:15:21.963Z,22.58
2023-01-13T09:17:48.924Z,21.54
2023-01-13T09:20:15.991Z,21.35
2023-01-13T09:22:42.863Z,21.78
2023-01-13T09:25:10.245Z,22.02
2023-01-13T09:27:37.080Z,22.98
2023-01-13T09:30:04.893Z,22.35
2023-01-13T09:32:31.775Z,22.59
2023-01-13T09:35:01.848Z,23.41
2023-01-13T09:37:31.520Z,20.70
2023-01-13T09:39:58.283Z,20.29
2023-01-13T09:43:19.015Z,21.09
2023-01-13T09:46:00.312Z,19.76
2023-01-13T09:48:32.826Z,22.52
2023-01-13T09:51:09.697Z,20.45
2023-01-13T09:53:47.583Z,21.58
2023-01-13T09:56:14.361Z,18.46
2023-01-13T09:58:41.962Z,20.07
2023-01-13T10:01:18.034Z,21.18
2023-01-13T10:03:45.465Z,19.60
2023-01-13T10:06:23.764Z,19.54
2023-01-13T10:08:51.334Z,20.20
2023-01-13T10:11:42.383Z,21.33
2023-01-13T10:14:30.472Z,19.37
2023-01-13T10:17:40.303Z,19.00
2023-01-13T10:20:07.150Z,18.04
2023-01-13T10:22:57.676Z,18.11
2023-01-13T10:25:32.477Z,16.62
2023-01-13T10:28:10.419Z,16.16
2023-01-13T10:30:41.159Z,14.64
2023-01-13T10:33:13.916Z,15.44
2023-01-13T10:36:12.140Z,16.19
2023-01-13T10:38:45.887Z,14.61
2023-01-13T10:41:15.911Z,14.00
2023-01-13T10:44:02.393Z,16.89
2023-01-13T10:46:30.175Z,14.72
2023-01-13T10:49:02.476Z,15.55
2023-01-13T10:51:40.924Z,15.19
2023-01-13T10:54:13.617Z,13.61
2023-01-13T10:56:43.631Z,16.68
2023-01-13T10:59:22.278Z,15.03
2023-01-13T11:02:19.892Z,16.86
2023-01-13T11:04:54.662Z,16.92
2023-01-13T11:07:41.770Z,20.03
2023-01-13T11:10:28.320Z,18.62
2023-01-13T11:13:13.776Z,18.99
2023-01-13T11:16:13.470Z,13.93
2023-01-13T11:18:40.966Z,18.81
2023-01-13T11:21:23.082Z,17.69
2023-01-13T11:24:14.954Z,18.37
2023-01-13T11:26:54.504Z,14.40
2023-01-13T11:29:31.905Z,16.15
2023-01-13T11:32:11.731Z,17.54
2023-01-13T11:34:42.339Z,19.97
2023-01-13T11:37:23.419Z,21.33
2023-01-13T11:40:04.192Z,19.78
2023-01-13T11:42:54.794Z,19.24
2023-01-13T11:45:24.664Z,21.83
2023-01-13T11:47:57.655Z,21.44
2023-01-13T11:51:02.337Z,24.04
2023-01-13T11:53:56.916Z,20.10
2023-01-13T11:56:51.402Z,22.64
2023-01-13T11:59:37.792Z,24.75
2023-01-13T12:02:19.368Z,23.44
2023-01-13T12:04:53.242Z,24.36
2023-01-13T12:07:57.660Z,20.33
2023-01-13T12:10:50.678Z,21.91
2023-01-13T12:13:24.836Z,25.06
2023-01-13T12:16:26.727Z,23.47
2023-01-13T12:19:21.423Z,22.05
2023-01-13T12:22:06.988Z,22.57
2023-01-13T12:24:55.106Z,23.43
2023-01-13T12:28:13.642Z,23.59
2023-01-13T12:30:50.843Z,24.02
2023-01-13T12:33:29.390Z,21.22
2023-01-13T12:36:06.939Z,20.58
2023-01-13T12:38:42.803Z,22.55
2023-01-13T12:41:29.562Z,25.27
2023-01-13T12:44:24.083Z,23.44
2023-01-13T12:46:57.092Z,23.99
2023-01-13T12:49:37.319Z,21.80
2023-01-13T12:52:07.816Z,22.33
2023-01-13T12:54:37.302Z,22.75
2023-01-13T12:57:16.320Z,24.57
2023-01-13T13:00:03.022Z,22.72
2023-01-13T13:02:41.928Z,22.39
2023-01-13T13:05:14.796Z,24.28
2023-01-13T13:07:47.490Z,23.91
2023-01-13T13:10:31.620Z,23.68
2023-01-13T13:13:21.263Z,23.83
2023-01-13T13:15:50.366Z,24.39
2023-01-13T13:18:17.302Z,26.11
2023-01-13T13:21:07.041Z,23.52
2023-01-13T13:23:35.425Z,23.42
2023-01-13T13:26:31.988Z,24.16
2023-01-13T13:29:34.092Z,23.20
2023-01-13T13:32:31.964Z,25.23
2023-01-13T13:35:27.109Z,25.98
2023-01-13T13:38:29.550Z,25.81
2023-01-13T13:41:14.840Z,25.28
2023-01-13T13:44:02.859Z,23.36
2023-01-13T13:46:46.859Z,24.68
2023-01-13T13:49:22.042Z,23.53
2023-01-13T13:51:59.743Z,23.58
2023-01-13T13:54:27.899Z,24.83
2023-01-13T13:56:54.736Z,23.27
2023-01-13T13:59:24.663Z,23.78
2023-01-13T14:02:01.296Z,24.26
2023-01-13T14:04:31.426Z,23.70
2023-01-13T14:07:01.764Z,24.65
2023-01-13T14:09:45.920Z,24.91
2023-01-13T14:12:22.057Z,23.52
2023-01-13T14:14:49.819Z,24.14
2023-01-13T14:17:22.243Z,26.78
2023-01-13T14:20:16.254Z,21.91
2023-01-13T14:22:48.363Z,24.61
2023-01-13T14:25:51.973Z,24.07
2023-01-13T14:28:28.190Z,25.63
2023-01-13T14:30:57.009Z,24.79
2023-01-13T14:33:41.417Z,23.53
2023-01-13T14:36:08.311Z,25.14
2023-01-13T14:38:35.644Z,23.43
2023-01-13T14:41:26.800Z,22.88
2023-01-13T14:43:59.343Z,23.18
2023-01-13T14:46:45.743Z,24.17
2023-01-13T14:49:24.598Z,23.93
2023-01-13T14:51:54.692Z,23.27
2023-01-13T14:55:02.798Z,23.10
2023-01-13T14:57:32.361Z,24.96
2023-01-13T15:00:01.974Z,25.31
2023-01-13T15:02:34.631Z,25.51
2023-01-13T15:05:19.845Z,24.73
2023-01-13T15:08:02.478Z,23.34
2023-01-13T15:10:34.839Z,26.79
2023-01-13T15:13:04.317Z,25.30
2023-01-13T15:15:34.026Z,24.38
2023-01-13T15:18:22.539Z,24.52
2023-01-13T15:20:51.067Z,24.16
2023-01-13T15:23:19.851Z,23.16
2023-01-13T15:25:47.774Z,23.88
2023-01-13T15:28:21.599Z,24.02
2023-01-13T15:30:50.466Z,21.88
2023-01-13T15:33:18.264Z,22.57
2023-01-13T15:35:48.015Z,23.77
2023-01-13T15:38:19.843Z,23.63
2023-01-13T15:40:48.424Z,24.92
2023-01-13T15:43:37.000Z,25.11
2023-01-13T15:46:19.266Z,27.28
2023-01-13T15:48:46.292Z,26.29
2023-01-13T15:51:21.137Z,24.45
2023-01-13T15:53:49.146Z,26.69
2023-01-13T15:56:23.182Z,25.55
2023-01-13T15:58:59.573Z,24.73
2023-01-13T16:01:26.437Z,26.76
2023-01-13T16:03:55.924Z,25.79
2023-01-13T16:06:33.198Z,24.83
2023-01-13T16:09:00.941Z,25.86
2023-01-13T16:11:29.396Z,22.86
2023-01-13T16:13:57.805Z,22.05
2023-01-13T16:16:27.829Z,22.06
2023-01-13T16:18:55.192Z,21.66
2023-01-13T16:21:22.560Z,22.89
2023-01-13T16:23:50.949Z,22.53
2023-01-13T16:26:23.844Z,23.65
2023-01-13T16:28:52.439Z,23.18
2023-01-13T16:31:28.464Z,22.07
2023-01-13T16:33:55.438Z,23.17
2023-01-13T16:36:22.622Z,22.90
2023-01-13T16:38:51.485Z,24.86
2023-01-13T16:41:19.823Z,22.40
2023-01-13T16:43:48.095Z,23.17
2023-01-13T16:46:21.244Z,23.84
2023-01-13T16:48:49.040Z,22.09
2023-01-13T16:51:16.173Z,24.57
2023-01-13T16:53:43.589Z,24.47
2023-01-13T16:56:26.424Z,23.51
2023-01-13T16:58:55.263Z,23.47
2023-01-13T17:01:33.507Z,24.80
2023-01-13T17:04:01.318Z,23.28
2023-01-13T17:06:36.543Z,24.94
2023-01-13T17:09:15.892Z,25.12
2023-01-13T17:11:43.813Z,25.26
2023-01-13T17:14:19.245Z,22.23
2023-01-13T17:16:46.938Z,26.69
2023-01-13T17:19:14.648Z,26.48
2023-01-13T17:21:42.318Z,26.06
2023-01-13T17:24:12.278Z,26.65
2023-01-13T17:26:47.165Z,27.54
2023-01-13T17:29:19.477Z,27.07
2023-01-13T17:31:46.652Z,28.67
2023-01-13T17:34:14.676Z,27.80
2023-01-13T17:36:43.900Z,27.44
2023-01-13T17:39:16.820Z,27.09
2023-01-13T17:41:43.772Z,26.96
2023-01-13T17:44:14.643Z,24.33
2023-01-13T17:46:42.251Z,27.60
2023-01-13T17:49:19.739Z,28.14
2023-01-13T17:51:48.297Z,27.22
2023-01-13T17:54:15.764Z,26.45
2023-01-13T17:56:43.859Z,26.50
2023-01-13T17:59:16.886Z,26.32
2023-01-13T18:01:44.995Z,25.54
2023-01-13T18:04:20.689Z,24.14
2023-01-13T18:06:48.545Z,25.83
2023-01-13T18:09:16.605Z,25.50
2023-01-13T18:11:45.207Z,26.22
2023-01-13T18:14:14.035Z,27.74
2023-01-13T18:16:40.975Z,28.61
2023-01-13T18:19:43.157Z,26.70
2023-01-13T18:22:32.829Z,28.26
2023-01-13T18:25:20.852Z,26.22
2023-01-13T18:27:48.655Z,25.90
2023-01-13T18:30:16.121Z,26.81
2023-01-13T18:32:43.128Z,27.41
2023-01-13T18:35:11.084Z,27.60
2023-01-13T18:37:40.533Z,27.13
2023-01-13T18:40:10.072Z,28.04
2023-01-13T18:42:54.935Z,27.03
2023-01-13T18:45:25.653Z,25.42
2023-01-13T18:47:54.284Z,26.19
2023-01-13T18:50:22.454Z,26.79
2023-01-13T18:52:49.852Z,25.81
2023-01-13T18:55:18.163Z,26.13
2023-01-13T18:57:45.781Z,24.89
2023-01-13T19:00:17.454Z,29.08
2023-01-13T19:02:47.778Z,25.17
2023-01-13T19:05:15.729Z,27.04
2023-01-13T19:07:50.419Z,29.01
2023-01-13T19:10:18.146Z,26.17
2023-01-13T19:12:45.847Z,27.71
2023-01-13T19:15:12.916Z,25.77
2023-01-13T19:17:39.668Z,28.71
2023-01-13T19:20:07.314Z,26.71
2023-01-13T19:22:35.022Z,26.99
2023-01-13T19:25:03.679Z,24.87
2023-01-13T19:27:31.734Z,26.45
2023-01-13T19:30:01.742Z,24.07
2023-01-13T19:32:31.795Z,25.24
2023-01-13T19:35:00.106Z,27.12
2023-01-13T19:37:32.025Z,24.26
2023-01-13T19:40:00.263Z,27.37
2023-01-13T19:42:46.325Z,26.00
2023-01-13T19:45:34.959Z,24.68
2023-01-13T19:48:02.464Z,26.69
2023-01-13T19:50:29.240Z,25.36
2023-01-13T19:52:57.411Z,23.49
2023-01-13T19:55:24.570Z,26.02
2023-01-13T19:57:51.870Z,26.22
2023-01-13T20:00:21.138Z,25.50
2023-01-13T20:02:49.629Z,24.58
2023-01-13T20:05:21.579Z,27.37
2023-01-13T20:07:50.709Z,26.36
2023-01-13T20:10:20.342Z,26.89
2023-01-13T20:12:47.405Z,27.21
2023-01-13T20:15:14.329Z,25.06
2023-01-13T20:17:41.832Z,24.76
2023-01-13T20:20:10.152Z,27.11
2023-01-13T20:22:38.784Z,26.63
2023-01-13T20:25:06.510Z,26.89
2023-01-13T20:27:33.957Z,28.23
2023-01-13T20:30:00.892Z,26.77
2023-01-13T20:32:27.613Z,25.48
2023-01-13T20:34:54.398Z,26.48
2023-01-13T20:37:21.529Z,27.73
2023-01-13T20:39:48.649Z,27.52
2023-01-13T20:42:32.420Z,27.36
2023-01-13T20:45:00.940Z,27.49
2023-01-13T20:47:29.275Z,28.71
2023-01-13T20:49:56.666Z,28.87
2023-01-13T20:52:23.934Z,28.13
2023-01-13T20:54:50.911Z,30.22
2023-01-13T20:57:17.881Z,27.05
2023-01-13T20:59:44.646Z,26.81
2023-01-13T21:02:14.911Z,27.81
2023-01-13T21:04:41.993Z,30.69
2023-01-13T21:07:10.647Z,28.74
2023-01-13T21:09:38.038Z,28.56
2023-01-13T21:12:23.812Z,28.25
2023-01-13T21:15:09.179Z,30.19
2023-01-13T21:17:54.497Z,30.27
2023-01-13T21:20:21.488Z,29.61
2023-01-13T21:22:49.698Z,30.51
2023-01-13T21:25:18.498Z,28.66
2023-01-13T21:27:45.261Z,28.41
2023-01-13T21:30:15.091Z,30.75
2023-01-13T21:32:44.183Z,27.45
2023-01-13T21:35:12.300Z,27.05
2023-01-13T21:37:41.452Z,27.19
2023-01-13T21:40:12.033Z,27.44
2023-01-13T21:42:57.856Z,28.39
2023-01-13T21:45:43.090Z,29.18
2023-01-13T21:48:09.928Z,29.94
2023-01-13T21:50:41.158Z,29.60
2023-01-13T21:53:08.364Z,28.76
2023-01-13T21:55:36.774Z,30.17
2023-01-13T21:58:12.918Z,31.10
2023-01-13T22:00:43.609Z,33.44
2023-01-13T22:03:12.166Z,29.00
2023-01-13T22:05:39.295Z,28.46
2023-01-13T22:08:06.568Z,27.44
2023-01-13T22:10:34.332Z,27.03
2023-01-13T22:13:22.606Z,26.43
2023-01-13T22:15:49.839Z,27.54
2023-01-13T22:18:18.366Z,28.99
2023-01-13T22:20:46.542Z,28.39
2023-01-13T22:23:13.600Z,29.83
2023-01-13T22:25:40.418Z,29.18
2023-01-13T22:28:09.216Z,29.20
2023-01-13T22:30:36.549Z,29.72
2023-01-13T22:33:03.707Z,29.86
2023-01-13T22:35:30.917Z,27.46
2023-01-13T22:37:58.666Z,29.10
2023-01-13T22:40:25.392Z,29.40
2023-01-13T22:42:52.256Z,26.90
2023-01-13T22:45:19.369Z,26.82
2023-01-13T22:47:46.166Z,28.67
2023-01-13T22:50:13.367Z,27.38
2023-01-13T22:52:40.077Z,27.29
2023-01-13T22:55:07.735Z,28.50
2023-01-13T22:57:36.375Z,27.91
2023-01-13T23:00:10.340Z,26.90
2023-01-13T23:02:38.299Z,29.30
2023-01-13T23:05:05.669Z,28.86
2023-01-13T23:07:32.487Z,28.61
2023-01-13T23:09:59.172Z,28.65
2023-01-13T23:12:25.947Z,27.84
2023-01-13T23:14:52.960Z,29.36
2023-01-13T23:17:20.431Z,28.24
2023-01-13T23:19:47.311Z,26.75
2023-01-13T23:22:14.010Z,29.93
2023-01-13T23:24:40.807Z,30.15
2023-01-13T23:27:07.654Z,28.87
2023-01-13T23:29:34.421Z,28.03
2023-01-13T23:32:01.088Z,29.12
2023-01-13T23:34:28.319Z,30.51
2023-01-13T23:36:55.206Z,29.75
2023-01-13T23:39:21.911Z,27.20
2023-01-13T23:41:48.824Z,28.18
2023-01-13T23:44:15.720Z,28.94
2023-01-13T23:46:42.535Z,28.53
2023-01-13T23:49:09.502Z,28.87
2023-01-13T23:51:36.280Z,29.16
2023-01-13T23:54:03.662Z,29.58
2023-01-13T23:56:31.484Z,26.88
2023-01-13T23:58:58.958Z,27.53
